createdAt,value
2023-01-25T00:04:46.671Z,10.33
2023-01-25T00:09:53.011Z,9.98
2023-01-25T00:14:58.315Z,10.03
2023-01-25T00:20:06.523Z,9.48
2023-01-25T00:25:12.761Z,9.82
2023-01-25T00:30:18.848Z,8.93
2023-01-25T00:35:26.995Z,9.32
2023-01-25T00:40:32.307Z,9.17
2023-01-25T00:45:37.619Z,9.60
2023-01-25T00:50:45.593Z,9.52
2023-01-25T00:55:54.903Z,8.63
2023-01-25T01:01:00.554Z,9.45
2023-01-25T01:06:11.535Z,10.10
2023-01-25T01:11:16.827Z,9.20
2023-01-25T01:16:22.106Z,9.88
2023-01-25T01:21:33.096Z,9.90
2023-01-25T01:26:38.383Z,9.45
2023-01-25T01:31:44.046Z,9.20
2023-01-25T01:37:00.462Z,9.52
2023-01-25T01:42:05.750Z,9.70
2023-01-25T01:47:18.426Z,10.03
2023-01-25T01:52:30.219Z,9.82
2023-01-25T01:57:40.906Z,10.10
2023-01-25T02:02:49.038Z,9.73
2023-01-25T02:07:58.905Z,9.90
2023-01-25T02:13:05.104Z,10.30
2023-01-25T02:18:12.224Z,9.30
2023-01-25T02:23:27.716Z,10.33
2023-01-25T02:28:39.736Z,9.82
2023-01-25T02:33:45.585Z,8.98
2023-01-25T02:38:57.381Z,9.47
2023-01-25T02:44:08.197Z,10.55
2023-01-25T02:49:14.829Z,10.27
2023-01-25T02:54:21.994Z,9.18
2023-01-25T02:59:29.991Z,10.00
2023-01-25T03:04:38.034Z,9.67
2023-01-25T03:09:44.515Z,9.73
2023-01-25T03:14:52.731Z,9.73
2023-01-25T03:19:58.755Z,9.55
2023-01-25T03:25:04.931Z,9.30
2023-01-25T03:30:15.641Z,10.40
2023-01-25T03:35:21.293Z,11.20
2023-01-25T03:40:26.828Z,10.47
2023-01-25T03:45:34.779Z,10.68
2023-01-25T03:50:40.330Z,11.15
2023-01-25T03:55:48.290Z,10.27
2023-01-25T04:00:59.242Z,10.05
2023-01-25T04:06:05.492Z,10.27
2023-01-25T04:11:13.206Z,9.50
2023-01-25T04:16:23.891Z,9.43
2023-01-25T04:21:58.467Z,9.90
2023-01-25T04:27:10.053Z,9.40
2023-01-25T04:32:26.427Z,10.90
2023-01-25T04:37:32.257Z,10.75
2023-01-25T04:42:39.398Z,9.80
2023-01-25T04:47:47.766Z,10.07
2023-01-25T04:52:54.079Z,10.90
2023-01-25T04:58:00.876Z,10.63
2023-01-25T05:03:09.273Z,10.93
2023-01-25T05:08:15.632Z,10.68
2023-01-25T05:13:21.664Z,12.07
2023-01-25T05:18:47.136Z,11.35
2023-01-25T05:23:59.149Z,12.57
2023-01-25T05:29:05.110Z,10.75
2023-01-25T05:34:22.727Z,12.18
2023-01-25T05:39:28.607Z,12.47
2023-01-25T05:44:35.031Z,11.35
2023-01-25T05:49:43.021Z,14.23
2023-01-25T05:54:53.642Z,13.05
2023-01-25T05:59:59.022Z,13.25
2023-01-25T06:05:07.593Z,12.00
2023-01-25T06:10:13.918Z,13.55
2023-01-25T06:15:19.966Z,13.60
2023-01-25T06:20:28.274Z,13.50
2023-01-25T06:25:43.460Z,13.57
2023-01-25T06:30:48.807Z,12.10
2023-01-25T06:35:56.836Z,12.82
2023-01-25T06:41:03.224Z,13.07
2023-01-25T06:46:12.060Z,14.35
2023-01-25T06:51:20.358Z,13.02
2023-01-25T06:56:26.738Z,13.43
2023-01-25T07:01:35.061Z,14.02
2023-01-25T07:06:43.564Z,15.13
2023-01-25T07:11:48.991Z,12.73
2023-01-25T07:16:54.210Z,13.50
2023-01-25T07:22:02.101Z,14.03
2023-01-25T07:27:07.368Z,14.10
2023-01-25T07:32:15.086Z,13.70
2023-01-25T07:37:22.955Z,13.40
2023-01-25T07:42:28.405Z,13.20
2023-01-25T07:47:49.935Z,15.13
2023-01-25T07:52:58.393Z,15.73
2023-01-25T07:58:03.705Z,14.60
2023-01-25T08:03:10.497Z,13.20
2023-01-25T08:08:18.677Z,13.00
2023-01-25T08:13:23.969Z,14.33
2023-01-25T08:18:29.311Z,14.18
2023-01-25T08:23:37.317Z,14.73
2023-01-25T08:28:42.627Z,13.82
2023-01-25T08:33:48.592Z,14.85
2023-01-25T08:39:00.327Z,13.00
2023-01-25T08:44:06.045Z,14.77
2023-01-25T08:49:13.124Z,14.63
2023-01-25T08:54:21.207Z,15.02
2023-01-25T08:59:26.645Z,15.32
2023-01-25T09:04:32.319Z,13.60
2023-01-25T09:09:40.542Z,15.38
2023-01-25T09:14:46.485Z,14.53
2023-01-25T09:25:20.496Z,14.40
2023-01-25T09:30:37.222Z,14.17
2023-01-25T09:35:57.862Z,13.75
2023-01-25T09:41:19.439Z,13.40
2023-01-25T09:46:30.717Z,15.50
2023-01-25T09:51:52.527Z,14.77
2023-01-25T09:57:01.834Z,13.43
2023-01-25T10:02:21.384Z,14.48
2023-01-25T10:07:30.071Z,14.40
2023-01-25T10:12:39.935Z,15.88
2023-01-25T10:17:45.723Z,14.63
2023-01-25T10:22:55.801Z,15.73
2023-01-25T10:28:15.960Z,15.63
2023-01-25T10:33:23.418Z,16.30
2023-01-25T10:38:33.875Z,15.85
2023-01-25T10:43:41.788Z,16.63
2023-01-25T10:48:47.319Z,16.13
2023-01-25T10:54:02.357Z,17.08
2023-01-25T10:59:20.111Z,16.13
2023-01-25T11:04:32.449Z,16.17
2023-01-25T11:09:40.810Z,15.98
2023-01-25T11:14:52.406Z,15.50
2023-01-25T11:20:19.913Z,16.08
2023-01-25T11:25:31.020Z,14.53
2023-01-25T11:30:39.223Z,14.43
2023-01-25T11:35:55.419Z,14.32
2023-01-25T11:41:08.971Z,15.40
2023-01-25T11:46:29.127Z,15.40
2023-01-25T11:51:39.084Z,15.07
2023-01-25T11:56:57.075Z,16.00
2023-01-25T12:02:38.869Z,14.88
2023-01-25T12:07:52.958Z,14.60
2023-01-25T12:13:05.561Z,16.17
2023-01-25T12:18:36.634Z,15.10
2023-01-25T12:24:04.391Z,14.80
2023-01-25T12:29:29.396Z,15.15
2023-01-25T12:34:40.394Z,14.60
2023-01-25T12:39:50.886Z,15.70
2023-01-25T12:45:01.898Z,15.53
2023-01-25T12:50:18.786Z,14.27
2023-01-25T12:55:24.431Z,15.30
2023-01-25T13:00:36.300Z,15.13
2023-01-25T13:05:51.258Z,17.40
2023-01-25T13:11:08.336Z,15.83
2023-01-25T13:16:36.386Z,14.50
2023-01-25T13:21:47.823Z,14.88
2023-01-25T13:27:05.546Z,15.37
2023-01-25T13:32:15.078Z,14.57
2023-01-25T13:37:25.050Z,12.63
2023-01-25T13:42:32.338Z,15.52
2023-01-25T13:47:40.103Z,14.18
2023-01-25T13:53:04.935Z,12.43
2023-01-25T13:58:18.960Z,13.10
2023-01-25T14:03:28.502Z,14.37
2023-01-25T14:08:36.868Z,14.73
2023-01-25T14:13:58.649Z,14.02
2023-01-25T14:19:23.815Z,13.63
2023-01-25T14:24:31.901Z,13.98
2023-01-25T14:35:43.361Z,13.48
2023-01-25T14:41:00.789Z,13.30
2023-01-25T14:46:21.419Z,13.07
2023-01-25T14:51:31.503Z,13.82
2023-01-25T14:56:45.444Z,12.27
2023-01-25T15:01:54.324Z,13.00
2023-01-25T15:07:08.939Z,12.32
2023-01-25T15:12:32.984Z,12.77
2023-01-25T15:17:39.356Z,13.32
2023-01-25T15:22:44.597Z,12.43
2023-01-25T15:27:52.554Z,12.07
2023-01-25T15:32:58.390Z,12.05
2023-01-25T15:38:03.722Z,11.90
2023-01-25T15:43:13.191Z,13.77
2023-01-25T15:48:20.322Z,11.93
2023-01-25T15:53:25.718Z,11.88
2023-01-25T15:58:37.343Z,11.75
2023-01-25T16:03:43.772Z,11.90
2023-01-25T16:08:49.812Z,12.10
2023-01-25T16:13:58.012Z,13.50
2023-01-25T16:19:03.522Z,14.20
2023-01-25T16:24:10.665Z,11.02
2023-01-25T16:29:18.615Z,12.73
2023-01-25T16:34:24.249Z,12.88
2023-01-25T16:39:29.846Z,12.20
2023-01-25T16:44:38.018Z,13.23
2023-01-25T16:49:43.382Z,13.15
2023-01-25T16:54:48.632Z,13.07
2023-01-25T16:59:56.562Z,12.45
2023-01-25T17:05:01.873Z,11.80
2023-01-25T17:10:09.513Z,11.50
2023-01-25T17:15:19.938Z,12.43
2023-01-25T17:20:25.318Z,11.30
2023-01-25T17:25:33.865Z,12.75
2023-01-25T17:30:43.119Z,11.53
2023-01-25T17:35:59.008Z,12.25
2023-01-25T17:41:08.689Z,12.20
2023-01-25T17:46:18.380Z,9.90
2023-01-25T17:51:25.079Z,9.88
2023-01-25T17:56:31.073Z,10.63
2023-01-25T18:01:42.582Z,10.18
2023-01-25T18:06:47.942Z,10.63
2023-01-25T18:11:56.252Z,11.03
2023-01-25T18:17:05.648Z,12.63
2023-01-25T18:22:10.900Z,12.63
2023-01-25T18:27:21.952Z,12.93
2023-01-25T18:32:30.370Z,15.25
2023-01-25T18:37:43.518Z,15.10
2023-01-25T18:42:53.379Z,15.00
2023-01-25T18:48:06.006Z,14.53
2023-01-25T18:53:12.196Z,13.88
2023-01-25T18:58:20.198Z,14.18
2023-01-25T19:03:29.189Z,15.13
2023-01-25T19:08:40.720Z,16.13
2023-01-25T19:13:46.871Z,15.47
2023-01-25T19:18:57.840Z,17.08
2023-01-25T19:24:03.544Z,15.77
2023-01-25T19:29:12.267Z,15.47
2023-01-25T19:34:20.341Z,17.92
2023-01-25T19:39:25.773Z,17.47
2023-01-25T19:44:31.118Z,14.73
2023-01-25T19:49:43.481Z,16.23
2023-01-25T19:54:48.751Z,17.77
2023-01-25T19:59:54.444Z,17.80
2023-01-25T20:05:07.122Z,17.27
2023-01-25T20:10:15.724Z,16.40
2023-01-25T20:15:21.950Z,15.65
2023-01-25T20:20:31.222Z,17.60
2023-01-25T20:25:37.155Z,17.20
2023-01-25T20:30:43.083Z,19.30
2023-01-25T20:35:51.900Z,14.18
2023-01-25T20:41:02.095Z,15.45
2023-01-25T20:46:08.423Z,16.20
2023-01-25T20:51:20.454Z,15.27
2023-01-25T20:56:26.743Z,14.17
2023-01-25T21:01:37.274Z,14.75
2023-01-25T21:06:46.509Z,13.85
2023-01-25T21:11:56.963Z,15.27
2023-01-25T21:17:03.173Z,14.00
2023-01-25T21:22:11.319Z,14.27
2023-01-25T21:27:17.261Z,15.68
2023-01-25T21:32:23.816Z,14.48
2023-01-25T21:37:32.051Z,13.97
2023-01-25T21:42:38.321Z,15.30
2023-01-25T21:47:43.586Z,16.43
2023-01-25T21:52:51.436Z,15.25
2023-01-25T21:57:58.446Z,15.32
2023-01-25T22:03:03.746Z,15.50
2023-01-25T22:08:11.974Z,15.82
2023-01-25T22:13:17.219Z,14.83
2023-01-25T22:18:22.616Z,17.67
2023-01-25T22:23:31.064Z,16.00
2023-01-25T22:28:41.281Z,16.33
2023-01-25T22:33:46.784Z,16.40
2023-01-25T22:38:54.668Z,18.70
2023-01-25T22:44:00.343Z,20.40
2023-01-25T22:49:05.886Z,19.98
2023-01-25T22:54:13.741Z,19.33
2023-01-25T22:59:19.413Z,20.63
2023-01-25T23:04:24.736Z,20.90
2023-01-25T23:09:32.642Z,20.52
2023-01-25T23:14:51.493Z,19.30
2023-01-25T23:19:56.837Z,19.83
2023-01-25T23:25:04.725Z,19.83
2023-01-25T23:30:12.323Z,19.60
2023-01-25T23:35:19.431Z,20.13
2023-01-25T23:40:27.460Z,20.95
2023-01-25T23:45:32.713Z,19.90
2023-01-25T23:50:37.979Z,19.48
2023-01-25T23:55:54.316Z,19.10
